sensor_id;sensor_type;location;lat;lon;timestamp;pressure;altitude;pressure_sealevel;temperature;humidity
13732;BME280;6937;56.096;12.664;2022-09-20T00:00:40;101409.38;;;11.49;100.00
13732;BME280;6937;56.096;12.664;2022-09-20T00:03:05;101462.69;;;11.80;100.00
13732;BME280;6937;56.096;12.664;2022-09-20T00:05:35;101479.00;;;11.90;100.00
13732;BME280;6937;56.096;12.664;2022-09-20T00:08:05;101474.41;;;11.92;100.00
13732;BME280;6937;56.096;12.664;2022-09-20T00:10:33;101468.47;;;11.87;100.00
13732;BME280;6937;56.096;12.664;2022-09-20T00:13:01;101463.84;;;11.76;100.00
13732;BME280;6937;56.096;12.664;2022-09-20T00:15:27;101452.56;;;11.71;100.00
13732;BME280;6937;56.096;12.664;2022-09-20T00:17:53;101465.00;;;11.72;100.00
13732;BME280;6937;56.096;12.664;2022-09-20T00:20:18;101443.78;;;11.55;100.00
13732;BME280;6937;56.096;12.664;2022-09-20T00:22:43;101463.00;;;11.61;100.00
13732;BME280;6937;56.096;12.664;2022-09-20T00:25:09;101459.19;;;11.51;100.00
13732;BME280;6937;56.096;12.664;2022-09-20T00:27:34;101409.06;;;11.27;100.00
13732;BME280;6937;56.096;12.664;2022-09-20T00:30:00;101458.44;;;11.49;100.00
13732;BME280;6937;56.096;12.664;2022-09-20T00:32:25;101476.03;;;11.53;100.00
13732;BME280;6937;56.096;12.664;2022-09-20T00:34:51;101462.34;;;11.44;100.00
13732;BME280;6937;56.096;12.664;2022-09-20T00:37:37;101474.22;;;11.54;100.00
13732;BME280;6937;56.096;12.664;2022-09-20T00:40:04;101487.38;;;11.57;100.00
13732;BME280;6937;56.096;12.664;2022-09-20T00:42:30;101472.47;;;11.53;100.00
13732;BME280;6937;56.096;12.664;2022-09-20T00:44:57;101487.47;;;11.55;100.00
13732;BME280;6937;56.096;12.664;2022-09-20T00:50:10;101451.97;;;11.39;100.00
13732;BME280;6937;56.096;12.664;2022-09-20T00:52:38;101485.28;;;11.48;100.00
13732;BME280;6937;56.096;12.664;2022-09-20T00:55:08;101480.72;;;11.50;100.00
13732;BME280;6937;56.096;12.664;2022-09-20T00:57:34;101460.75;;;11.41;100.00
13732;BME280;6937;56.096;12.664;2022-09-20T01:00:11;101489.13;;;11.58;100.00
13732;BME280;6937;56.096;12.664;2022-09-20T01:02:41;101523.63;;;11.77;100.00
13732;BME280;6937;56.096;12.664;2022-09-20T01:05:08;101524.28;;;11.80;100.00
13732;BME280;6937;56.096;12.664;2022-09-20T01:07:34;101531.25;;;11.83;100.00
13732;BME280;6937;56.096;12.664;2022-09-20T01:10:00;101523.28;;;11.81;100.00
13732;BME280;6937;56.096;12.664;2022-09-20T01:12:29;101520.22;;;11.87;100.00
13732;BME280;6937;56.096;12.664;2022-09-20T01:14:58;101507.22;;;11.81;100.00
13732;BME280;6937;56.096;12.664;2022-09-20T01:17:25;101492.66;;;11.73;100.00
13732;BME280;6937;56.096;12.664;2022-09-20T01:20:11;101475.41;;;11.62;100.00
13732;BME280;6937;56.096;12.664;2022-09-20T01:28:25;101417.34;;;11.09;100.00
13732;BME280;6937;56.096;12.664;2022-09-20T01:33:51;101442.38;;;11.08;100.00
13732;BME280;6937;56.096;12.664;2022-09-20T01:36:23;101445.25;;;11.05;100.00
13732;BME280;6937;56.096;12.664;2022-09-20T01:41:41;101440.75;;;10.92;100.00
13732;BME280;6937;56.096;12.664;2022-09-20T01:44:28;101430.06;;;10.78;100.00
13732;BME280;6937;56.096;12.664;2022-09-20T01:47:10;101450.50;;;10.79;100.00
13732;BME280;6937;56.096;12.664;2022-09-20T02:00:51;101402.63;;;10.32;100.00
13732;BME280;6937;56.096;12.664;2022-09-20T02:12:21;101499.13;;;10.85;100.00
13732;BME280;6937;56.096;12.664;2022-09-20T02:15:16;101493.03;;;10.83;100.00
13732;BME280;6937;56.096;12.664;2022-09-20T02:20:40;101483.06;;;10.71;100.00
13732;BME280;6937;56.096;12.664;2022-09-20T02:31:32;101561.03;;;10.93;100.00
13732;BME280;6937;56.096;12.664;2022-09-20T02:39:15;101501.66;;;10.58;100.00
13732;BME280;6937;56.096;12.664;2022-09-20T02:42:00;101583.00;;;11.12;100.00
13732;BME280;6937;56.096;12.664;2022-09-20T02:44:32;101595.66;;;11.25;100.00
13732;BME280;6937;56.096;12.664;2022-09-20T02:47:09;101565.22;;;11.11;100.00
13732;BME280;6937;56.096;12.664;2022-09-20T02:52:42;101572.78;;;11.19;100.00
13732;BME280;6937;56.096;12.664;2022-09-20T02:58:18;101576.91;;;11.25;100.00
13732;BME280;6937;56.096;12.664;2022-09-20T03:00:59;101464.91;;;10.62;100.00
13732;BME280;6937;56.096;12.664;2022-09-20T03:03:39;101563.03;;;11.18;100.00
13732;BME280;6937;56.096;12.664;2022-09-20T03:09:06;101534.16;;;10.95;100.00
13732;BME280;6937;56.096;12.664;2022-09-20T03:14:32;101506.66;;;10.64;100.00
13732;BME280;6937;56.096;12.664;2022-09-20T03:17:17;101514.34;;;10.55;100.00
13732;BME280;6937;56.096;12.664;2022-09-20T03:22:53;101516.81;;;10.44;100.00
13732;BME280;6937;56.096;12.664;2022-09-20T03:25:46;101428.91;;;9.80;100.00
13732;BME280;6937;56.096;12.664;2022-09-20T03:28:27;101557.56;;;10.47;100.00
13732;BME280;6937;56.096;12.664;2022-09-20T03:31:15;101470.03;;;9.91;100.00
13732;BME280;6937;56.096;12.664;2022-09-20T03:42:19;101527.84;;;10.08;100.00
13732;BME280;6937;56.096;12.664;2022-09-20T03:48:17;101634.69;;;10.69;100.00
13732;BME280;6937;56.096;12.664;2022-09-20T03:51:15;101652.59;;;10.83;100.00
13732;BME280;6937;56.096;12.664;2022-09-20T03:53:56;101585.53;;;10.42;100.00
13732;BME280;6937;56.096;12.664;2022-09-20T03:56:51;101643.03;;;10.79;100.00
13732;BME280;6937;56.096;12.664;2022-09-20T04:04:53;101565.63;;;10.32;100.00
13732;BME280;6937;56.096;12.664;2022-09-20T04:10:22;101600.81;;;10.24;100.00
13732;BME280;6937;56.096;12.664;2022-09-20T04:15:56;101617.63;;;10.26;100.00
13732;BME280;6937;56.096;12.664;2022-09-20T04:18:36;101638.13;;;10.41;100.00
13732;BME280;6937;56.096;12.664;2022-09-20T04:21:18;101660.19;;;10.45;100.00
13732;BME280;6937;56.096;12.664;2022-09-20T04:26:31;101700.50;;;10.56;100.00
13732;BME280;6937;56.096;12.664;2022-09-20T04:29:24;101584.19;;;9.88;100.00
13732;BME280;6937;56.096;12.664;2022-09-20T04:34:48;101718.44;;;10.54;100.00
13732;BME280;6937;56.096;12.664;2022-09-20T04:37:36;101653.06;;;10.12;100.00
13732;BME280;6937;56.096;12.664;2022-09-20T04:40:23;101716.75;;;10.53;100.00
13732;BME280;6937;56.096;12.664;2022-09-20T05:00:05;101802.25;;;11.00;100.00
13732;BME280;6937;56.096;12.664;2022-09-20T05:02:54;101835.63;;;11.08;100.00
13732;BME280;6937;56.096;12.664;2022-09-20T05:05:33;101845.72;;;11.19;100.00
13732;BME280;6937;56.096;12.664;2022-09-20T05:08:33;101840.09;;;11.24;100.00
13732;BME280;6937;56.096;12.664;2022-09-20T05:14:31;101844.84;;;11.34;100.00
13732;BME280;6937;56.096;12.664;2022-09-20T05:17:27;101844.03;;;11.32;100.00
13732;BME280;6937;56.096;12.664;2022-09-20T05:22:57;101856.28;;;11.36;100.00
13732;BME280;6937;56.096;12.664;2022-09-20T05:28:26;101867.63;;;11.41;100.00
13732;BME280;6937;56.096;12.664;2022-09-20T05:30:58;101861.53;;;11.24;100.00
13732;BME280;6937;56.096;12.664;2022-09-20T05:33:36;101877.38;;;11.42;100.00
13732;BME280;6937;56.096;12.664;2022-09-20T05:36:16;101889.72;;;11.45;100.00
13732;BME280;6937;56.096;12.664;2022-09-20T05:39:27;101887.63;;;11.50;100.00
13732;BME280;6937;56.096;12.664;2022-09-20T05:42:18;101879.19;;;11.42;100.00
13732;BME280;6937;56.096;12.664;2022-09-20T05:45:02;101878.25;;;11.43;100.00
13732;BME280;6937;56.096;12.664;2022-09-20T05:47:39;101885.41;;;11.42;100.00
13732;BME280;6937;56.096;12.664;2022-09-20T06:01:41;101889.09;;;11.40;100.00
13732;BME280;6937;56.096;12.664;2022-09-20T06:04:25;101789.84;;;10.83;100.00
13732;BME280;6937;56.096;12.664;2022-09-20T06:07:06;101920.53;;;11.52;100.00
13732;BME280;6937;56.096;12.664;2022-09-20T06:15:35;101911.38;;;11.56;100.00
13732;BME280;6937;56.096;12.664;2022-09-20T06:21:03;101914.97;;;11.71;100.00
13732;BME280;6937;56.096;12.664;2022-09-20T06:23:33;101922.75;;;11.75;100.00
13732;BME280;6937;56.096;12.664;2022-09-20T06:26:07;101933.22;;;11.80;100.00
13732;BME280;6937;56.096;12.664;2022-09-20T06:28:42;101818.03;;;11.20;100.00
13732;BME280;6937;56.096;12.664;2022-09-20T06:31:10;101877.69;;;11.52;100.00
13732;BME280;6937;56.096;12.664;2022-09-20T06:33:57;101913.88;;;11.75;100.00
13732;BME280;6937;56.096;12.664;2022-09-20T06:36:29;101935.03;;;11.79;100.00
13732;BME280;6937;56.096;12.664;2022-09-20T06:42:13;101954.00;;;11.90;100.00
13732;BME280;6937;56.096;12.664;2022-09-20T06:44:38;101963.59;;;11.94;100.00
13732;BME280;6937;56.096;12.664;2022-09-20T06:47:06;101829.59;;;11.21;100.00
13732;BME280;6937;56.096;12.664;2022-09-20T06:49:32;101946.56;;;11.95;100.00
13732;BME280;6937;56.096;12.664;2022-09-20T06:52:00;101896.16;;;11.56;100.00
13732;BME280;6937;56.096;12.664;2022-09-20T06:54:26;101964.34;;;11.96;100.00
13732;BME280;6937;56.096;12.664;2022-09-20T06:56:51;101860.53;;;11.40;100.00
13732;BME280;6937;56.096;12.664;2022-09-20T06:59:17;101821.91;;;11.44;100.00
13732;BME280;6937;56.096;12.664;2022-09-20T07:01:43;101877.38;;;11.88;100.00
13732;BME280;6937;56.096;12.664;2022-09-20T07:04:08;101772.50;;;11.36;100.00
13732;BME280;6937;56.096;12.664;2022-09-20T07:06:34;101866.94;;;11.83;100.00
13732;BME280;6937;56.096;12.664;2022-09-20T07:09:00;101898.16;;;11.98;100.00
13732;BME280;6937;56.096;12.664;2022-09-20T07:11:26;101887.78;;;11.92;100.00
13732;BME280;6937;56.096;12.664;2022-09-20T07:13:54;101829.94;;;11.44;100.00
13732;BME280;6937;56.096;12.664;2022-09-20T07:16:20;101928.78;;;11.94;100.00
13732;BME280;6937;56.096;12.664;2022-09-20T07:18:47;101876.81;;;11.51;100.00
13732;BME280;6937;56.096;12.664;2022-09-20T07:21:14;101982.78;;;12.02;100.00
13732;BME280;6937;56.096;12.664;2022-09-20T07:23:40;102007.63;;;12.04;100.00
13732;BME280;6937;56.096;12.664;2022-09-20T07:26:11;102037.91;;;12.06;100.00
13732;BME280;6937;56.096;12.664;2022-09-20T07:28:40;102040.31;;;12.11;100.00
13732;BME280;6937;56.096;12.664;2022-09-20T07:31:05;102079.13;;;12.20;100.00
13732;BME280;6937;56.096;12.664;2022-09-20T07:33:31;102073.56;;;12.23;100.00
13732;BME280;6937;56.096;12.664;2022-09-20T07:35:56;102100.28;;;12.40;100.00
13732;BME280;6937;56.096;12.664;2022-09-20T07:38:22;102097.94;;;12.34;100.00
13732;BME280;6937;56.096;12.664;2022-09-20T07:40:59;102037.81;;;12.08;100.00
13732;BME280;6937;56.096;12.664;2022-09-20T07:43:26;102143.47;;;12.65;100.00
13732;BME280;6937;56.096;12.664;2022-09-20T07:45:52;102129.44;;;12.60;100.00
13732;BME280;6937;56.096;12.664;2022-09-20T07:48:20;102178.19;;;12.82;100.00
13732;BME280;6937;56.096;12.664;2022-09-20T07:50:58;102181.47;;;12.87;100.00
13732;BME280;6937;56.096;12.664;2022-09-20T07:53:25;102144.09;;;12.84;100.00
13732;BME280;6937;56.096;12.664;2022-09-20T07:55:58;102107.25;;;12.72;100.00
13732;BME280;6937;56.096;12.664;2022-09-20T07:58:24;102082.44;;;12.69;100.00
13732;BME280;6937;56.096;12.664;2022-09-20T08:01:02;102063.06;;;12.64;100.00
13732;BME280;6937;56.096;12.664;2022-09-20T08:03:29;102007.56;;;12.36;100.00
13732;BME280;6937;56.096;12.664;2022-09-20T08:06:07;102045.94;;;12.66;100.00
13732;BME280;6937;56.096;12.664;2022-09-20T08:08:34;102061.09;;;12.67;100.00
13732;BME280;6937;56.096;12.664;2022-09-20T08:11:22;102062.94;;;12.81;100.00
13732;BME280;6937;56.096;12.664;2022-09-20T08:13:51;102083.53;;;12.94;100.00
13732;BME280;6937;56.096;12.664;2022-09-20T08:16:17;102099.84;;;13.05;100.00
13732;BME280;6937;56.096;12.664;2022-09-20T08:19:04;101968.03;;;12.53;100.00
13732;BME280;6937;56.096;12.664;2022-09-20T08:21:31;102000.16;;;12.97;100.00
13732;BME280;6937;56.096;12.664;2022-09-20T08:23:57;101956.19;;;13.00;100.00
13732;BME280;6937;56.096;12.664;2022-09-20T08:26:25;101932.47;;;13.06;100.00
13732;BME280;6937;56.096;12.664;2022-09-20T08:28:53;101923.75;;;13.17;100.00
13732;BME280;6937;56.096;12.664;2022-09-20T08:31:21;101904.78;;;13.20;100.00
13732;BME280;6937;56.096;12.664;2022-09-20T08:33:47;101866.88;;;13.25;100.00
13732;BME280;6937;56.096;12.664;2022-09-20T08:36:17;101810.84;;;13.06;100.00
13732;BME280;6937;56.096;12.664;2022-09-20T08:38:43;101824.88;;;13.24;100.00
13732;BME280;6937;56.096;12.664;2022-09-20T08:43:39;101737.56;;;12.91;100.00
13732;BME280;6937;56.096;12.664;2022-09-20T08:46:12;101803.91;;;13.43;100.00
13732;BME280;6937;56.096;12.664;2022-09-20T08:48:39;101804.53;;;13.46;100.00
13732;BME280;6937;56.096;12.664;2022-09-20T08:51:05;101768.56;;;13.36;100.00
13732;BME280;6937;56.096;12.664;2022-09-20T08:53:31;101785.22;;;13.54;100.00
13732;BME280;6937;56.096;12.664;2022-09-20T08:55:58;101690.06;;;13.06;100.00
13732;BME280;6937;56.096;12.664;2022-09-20T08:58:25;101765.91;;;13.62;100.00
13732;BME280;6937;56.096;12.664;2022-09-20T09:00:50;101688.84;;;13.24;100.00
13732;BME280;6937;56.096;12.664;2022-09-20T09:03:16;101737.75;;;13.67;100.00
13732;BME280;6937;56.096;12.664;2022-09-20T09:08:33;101668.66;;;13.44;100.00
13732;BME280;6937;56.096;12.664;2022-09-20T09:11:02;101755.94;;;14.01;100.00
13732;BME280;6937;56.096;12.664;2022-09-20T09:13:54;101766.66;;;14.14;100.00
13732;BME280;6937;56.096;12.664;2022-09-20T09:16:25;101783.19;;;14.33;100.00
13732;BME280;6937;56.096;12.664;2022-09-20T09:18:51;101789.66;;;14.43;100.00
13732;BME280;6937;56.096;12.664;2022-09-20T09:21:27;101772.00;;;14.52;100.00
13732;BME280;6937;56.096;12.664;2022-09-20T09:24:13;101761.22;;;14.52;100.00
13732;BME280;6937;56.096;12.664;2022-09-20T09:26:41;101755.03;;;14.39;100.00
13732;BME280;6937;56.096;12.664;2022-09-20T09:31:36;101750.91;;;14.33;100.00
13732;BME280;6937;56.096;12.664;2022-09-20T09:34:02;101740.72;;;14.26;100.00
13732;BME280;6937;56.096;12.664;2022-09-20T09:36:28;101717.63;;;14.11;100.00
13732;BME280;6937;56.096;12.664;2022-09-20T09:39:21;101767.81;;;14.48;100.00
13732;BME280;6937;56.096;12.664;2022-09-20T09:41:47;101784.81;;;14.48;100.00
13732;BME280;6937;56.096;12.664;2022-09-20T09:44:25;101791.91;;;14.49;100.00
13732;BME280;6937;56.096;12.664;2022-09-20T09:46:52;101843.53;;;14.67;100.00
13732;BME280;6937;56.096;12.664;2022-09-20T09:49:20;101827.16;;;14.70;100.00
13732;BME280;6937;56.096;12.664;2022-09-20T09:52:08;101842.19;;;14.85;100.00
13732;BME280;6937;56.096;12.664;2022-09-20T09:54:38;101848.34;;;14.87;100.00
13732;BME280;6937;56.096;12.664;2022-09-20T09:57:42;101826.50;;;14.79;100.00
13732;BME280;6937;56.096;12.664;2022-09-20T10:00:20;101790.09;;;14.50;100.00
13732;BME280;6937;56.096;12.664;2022-09-20T10:03:06;101856.47;;;14.98;100.00
13732;BME280;6937;56.096;12.664;2022-09-20T10:14:12;101842.00;;;15.12;100.00
13732;BME280;6937;56.096;12.664;2022-09-20T10:32:46;101843.44;;;15.29;100.00
13732;BME280;6937;56.096;12.664;2022-09-20T10:38:24;101823.78;;;15.16;100.00
13732;BME280;6937;56.096;12.664;2022-09-20T10:46:52;101858.47;;;15.08;100.00
13732;BME280;6937;56.096;12.664;2022-09-20T10:49:38;101874.59;;;15.20;100.00
13732;BME280;6937;56.096;12.664;2022-09-20T10:55:26;101939.88;;;15.84;100.00
13732;BME280;6937;56.096;12.664;2022-09-20T10:58:20;101907.13;;;15.77;100.00
13732;BME280;6937;56.096;12.664;2022-09-20T11:03:50;101914.59;;;15.74;100.00
13732;BME280;6937;56.096;12.664;2022-09-20T11:06:24;101914.47;;;15.75;100.00
13732;BME280;6937;56.096;12.664;2022-09-20T11:08:58;101920.84;;;15.74;100.00
13732;BME280;6937;56.096;12.664;2022-09-20T11:11:33;101931.44;;;15.88;100.00
13732;BME280;6937;56.096;12.664;2022-09-20T11:14:20;101980.38;;;16.30;100.00
13732;BME280;6937;56.096;12.664;2022-09-20T11:17:35;101943.69;;;16.27;100.00
13732;BME280;6937;56.096;12.664;2022-09-20T11:22:42;101950.72;;;16.41;100.00
13732;BME280;6937;56.096;12.664;2022-09-20T11:25:18;101959.22;;;16.48;100.00
13732;BME280;6937;56.096;12.664;2022-09-20T11:27:54;101965.31;;;16.50;100.00
13732;BME280;6937;56.096;12.664;2022-09-20T11:30:23;101964.50;;;16.49;100.00
13732;BME280;6937;56.096;12.664;2022-09-20T11:33:13;101941.84;;;16.28;100.00
13732;BME280;6937;56.096;12.664;2022-09-20T11:35:47;101956.47;;;16.25;100.00
13732;BME280;6937;56.096;12.664;2022-09-20T11:38:24;101965.88;;;16.20;100.00
13732;BME280;6937;56.096;12.664;2022-09-20T11:43:29;101953.25;;;15.85;100.00
13732;BME280;6937;56.096;12.664;2022-09-20T11:45:59;101967.94;;;15.81;100.00
13732;BME280;6937;56.096;12.664;2022-09-20T11:48:43;101993.16;;;15.80;100.00
13732;BME280;6937;56.096;12.664;2022-09-20T11:51:18;102037.75;;;15.97;100.00
13732;BME280;6937;56.096;12.664;2022-09-20T11:56:28;101995.81;;;15.69;100.00
13732;BME280;6937;56.096;12.664;2022-09-20T11:58:57;102000.91;;;15.61;100.00
13732;BME280;6937;56.096;12.664;2022-09-20T12:01:35;102014.03;;;15.66;100.00
13732;BME280;6937;56.096;12.664;2022-09-20T12:06:44;102047.09;;;15.80;100.00
13732;BME280;6937;56.096;12.664;2022-09-20T12:09:30;102047.81;;;15.82;100.00
13732;BME280;6937;56.096;12.664;2022-09-20T12:11:58;102062.47;;;15.91;100.00
13732;BME280;6937;56.096;12.664;2022-09-20T12:14:26;102056.63;;;15.97;100.00
13732;BME280;6937;56.096;12.664;2022-09-20T12:16:53;102102.41;;;16.10;100.00
13732;BME280;6937;56.096;12.664;2022-09-20T12:24:24;102108.00;;;16.19;100.00
13732;BME280;6937;56.096;12.664;2022-09-20T12:26:52;102136.19;;;16.39;100.00
13732;BME280;6937;56.096;12.664;2022-09-20T12:31:52;102113.53;;;16.41;100.00
13732;BME280;6937;56.096;12.664;2022-09-20T12:39:26;102056.81;;;16.07;100.00
13732;BME280;6937;56.096;12.664;2022-09-20T12:44:40;102091.44;;;16.24;100.00
13732;BME280;6937;56.096;12.664;2022-09-20T12:49:38;102130.31;;;16.69;100.00
13732;BME280;6937;56.096;12.664;2022-09-20T12:52:29;102152.38;;;16.86;100.00
13732;BME280;6937;56.096;12.664;2022-09-20T13:03:34;102105.78;;;17.18;100.00
13732;BME280;6937;56.096;12.664;2022-09-20T13:11:54;102044.31;;;16.64;100.00
13732;BME280;6937;56.096;12.664;2022-09-20T13:14:29;102106.34;;;16.88;100.00
13732;BME280;6937;56.096;12.664;2022-09-20T13:17:02;102128.38;;;17.06;100.00
13732;BME280;6937;56.096;12.664;2022-09-20T13:19:34;102156.06;;;17.31;100.00
13732;BME280;6937;56.096;12.664;2022-09-20T13:22:08;102182.91;;;17.57;100.00
13732;BME280;6937;56.096;12.664;2022-09-20T13:24:40;102182.81;;;17.69;100.00
13732;BME280;6937;56.096;12.664;2022-09-20T13:27:16;102126.19;;;17.44;100.00
13732;BME280;6937;56.096;12.664;2022-09-20T13:29:43;102086.88;;;17.18;100.00
13732;BME280;6937;56.096;12.664;2022-09-20T13:32:28;102120.16;;;17.18;100.00
13732;BME280;6937;56.096;12.664;2022-09-20T13:37:30;102165.53;;;17.48;100.00
13732;BME280;6937;56.096;12.664;2022-09-20T13:39:56;102111.69;;;17.23;100.00
13732;BME280;6937;56.096;12.664;2022-09-20T13:42:22;102101.59;;;17.03;100.00
13732;BME280;6937;56.096;12.664;2022-09-20T13:44:48;102101.09;;;16.98;100.00
13732;BME280;6937;56.096;12.664;2022-09-20T13:47:28;102057.69;;;16.66;100.00
13732;BME280;6937;56.096;12.664;2022-09-20T13:50:16;102095.94;;;16.60;100.00
13732;BME280;6937;56.096;12.664;2022-09-20T13:52:51;102102.72;;;16.65;100.00
13732;BME280;6937;56.096;12.664;2022-09-20T13:55:36;102150.47;;;16.76;100.00
13732;BME280;6937;56.096;12.664;2022-09-20T13:58:07;102144.47;;;16.72;100.00
13732;BME280;6937;56.096;12.664;2022-09-20T14:00:45;102130.47;;;16.67;100.00
13732;BME280;6937;56.096;12.664;2022-09-20T14:03:15;102116.44;;;16.62;100.00
13732;BME280;6937;56.096;12.664;2022-09-20T14:05:49;102169.91;;;16.81;100.00
13732;BME280;6937;56.096;12.664;2022-09-20T14:08:23;102213.47;;;17.11;100.00
13732;BME280;6937;56.096;12.664;2022-09-20T14:11:02;102181.69;;;17.15;100.00
13732;BME280;6937;56.096;12.664;2022-09-20T14:13:34;102134.84;;;16.92;100.00
13732;BME280;6937;56.096;12.664;2022-09-20T14:16:02;102217.47;;;17.29;100.00
13732;BME280;6937;56.096;12.664;2022-09-20T14:18:27;102206.41;;;17.32;100.00
13732;BME280;6937;56.096;12.664;2022-09-20T14:20:53;102207.69;;;17.39;100.00
13732;BME280;6937;56.096;12.664;2022-09-20T14:23:25;102257.75;;;17.67;100.00
13732;BME280;6937;56.096;12.664;2022-09-20T14:28:45;102183.38;;;17.51;100.00
13732;BME280;6937;56.096;12.664;2022-09-20T14:31:26;102114.63;;;17.09;100.00
13732;BME280;6937;56.096;12.664;2022-09-20T14:33:57;102060.25;;;16.56;100.00
13732;BME280;6937;56.096;12.664;2022-09-20T14:36:26;102048.56;;;16.32;100.00
13732;BME280;6937;56.096;12.664;2022-09-20T14:38:55;102061.09;;;16.09;100.00
13732;BME280;6937;56.096;12.664;2022-09-20T14:41:47;102061.19;;;15.84;100.00
13732;BME280;6937;56.096;12.664;2022-09-20T14:44:25;102138.00;;;16.15;100.00
13732;BME280;6937;56.096;12.664;2022-09-20T14:46:51;102149.09;;;16.23;100.00
13732;BME280;6937;56.096;12.664;2022-09-20T14:49:39;102101.69;;;16.08;100.00
13732;BME280;6937;56.096;12.664;2022-09-20T14:57:37;102126.38;;;16.02;100.00
13732;BME280;6937;56.096;12.664;2022-09-20T15:00:10;102171.53;;;16.23;100.00
13732;BME280;6937;56.096;12.664;2022-09-20T15:02:36;102227.03;;;16.64;100.00
13732;BME280;6937;56.096;12.664;2022-09-20T15:05:01;102266.75;;;16.98;100.00
13732;BME280;6937;56.096;12.664;2022-09-20T15:07:27;102258.53;;;17.11;100.00
13732;BME280;6937;56.096;12.664;2022-09-20T15:09:53;102304.13;;;17.39;100.00
13732;BME280;6937;56.096;12.664;2022-09-20T15:12:19;102263.19;;;17.44;100.00
13732;BME280;6937;56.096;12.664;2022-09-20T15:14:46;102272.69;;;17.49;100.00
13732;BME280;6937;56.096;12.664;2022-09-20T15:17:17;102266.47;;;17.60;100.00
13732;BME280;6937;56.096;12.664;2022-09-20T15:19:46;102265.25;;;17.64;100.00
13732;BME280;6937;56.096;12.664;2022-09-20T15:22:12;102233.00;;;17.50;100.00
13732;BME280;6937;56.096;12.664;2022-09-20T15:24:39;102227.22;;;17.43;100.00
13732;BME280;6937;56.096;12.664;2022-09-20T15:27:05;102234.22;;;17.46;100.00
13732;BME280;6937;56.096;12.664;2022-09-20T15:29:30;102239.50;;;17.47;100.00
13732;BME280;6937;56.096;12.664;2022-09-20T15:31:56;102224.63;;;17.42;100.00
13732;BME280;6937;56.096;12.664;2022-09-20T15:34:21;102220.94;;;17.43;100.00
13732;BME280;6937;56.096;12.664;2022-09-20T15:36:47;102248.47;;;17.48;100.00
13732;BME280;6937;56.096;12.664;2022-09-20T15:39:13;102258.50;;;17.58;100.00
13732;BME280;6937;56.096;12.664;2022-09-20T15:41:39;102225.13;;;17.47;100.00
13732;BME280;6937;56.096;12.664;2022-09-20T15:44:05;102231.28;;;17.49;100.00
13732;BME280;6937;56.096;12.664;2022-09-20T15:46:31;102229.69;;;17.46;100.00
13732;BME280;6937;56.096;12.664;2022-09-20T15:48:59;102249.09;;;17.51;100.00
13732;BME280;6937;56.096;12.664;2022-09-20T15:51:25;102226.81;;;17.36;100.00
13732;BME280;6937;56.096;12.664;2022-09-20T15:53:59;102203.47;;;17.24;100.00
13732;BME280;6937;56.096;12.664;2022-09-20T15:56:27;102202.78;;;17.10;100.00
13732;BME280;6937;56.096;12.664;2022-09-20T15:58:54;102209.28;;;17.07;100.00
13732;BME280;6937;56.096;12.664;2022-09-20T16:03:54;102212.13;;;17.06;100.00
13732;BME280;6937;56.096;12.664;2022-09-20T16:06:21;102227.63;;;17.15;100.00
13732;BME280;6937;56.096;12.664;2022-09-20T16:08:47;102229.34;;;17.16;100.00
13732;BME280;6937;56.096;12.664;2022-09-20T16:11:15;102213.59;;;17.10;100.00
13732;BME280;6937;56.096;12.664;2022-09-20T16:13:41;102217.63;;;17.04;100.00
13732;BME280;6937;56.096;12.664;2022-09-20T16:16:08;102205.44;;;16.99;100.00
13732;BME280;6937;56.096;12.664;2022-09-20T16:18:35;102206.53;;;16.96;100.00
13732;BME280;6937;56.096;12.664;2022-09-20T16:21:19;102202.22;;;16.82;100.00
13732;BME280;6937;56.096;12.664;2022-09-20T16:23:55;102211.81;;;16.86;100.00
13732;BME280;6937;56.096;12.664;2022-09-20T16:26:22;102196.03;;;16.80;100.00
13732;BME280;6937;56.096;12.664;2022-09-20T16:28:49;102177.56;;;16.63;100.00
13732;BME280;6937;56.096;12.664;2022-09-20T16:34:15;102178.16;;;16.43;100.00
13732;BME280;6937;56.096;12.664;2022-09-20T16:36:43;102207.41;;;16.49;100.00
13732;BME280;6937;56.096;12.664;2022-09-20T16:39:10;102220.38;;;16.57;100.00
13732;BME280;6937;56.096;12.664;2022-09-20T16:41:36;102221.31;;;16.56;100.00
13732;BME280;6937;56.096;12.664;2022-09-20T16:44:03;102204.41;;;16.41;100.00
13732;BME280;6937;56.096;12.664;2022-09-20T16:46:29;102211.72;;;16.39;100.00
13732;BME280;6937;56.096;12.664;2022-09-20T16:48:55;102196.47;;;16.27;100.00
13732;BME280;6937;56.096;12.664;2022-09-20T16:51:23;102201.19;;;16.23;100.00
13732;BME280;6937;56.096;12.664;2022-09-20T16:53:52;102183.34;;;16.10;100.00
13732;BME280;6937;56.096;12.664;2022-09-20T16:56:23;102172.38;;;15.87;100.00
13732;BME280;6937;56.096;12.664;2022-09-20T16:58:49;102192.34;;;15.85;100.00
13732;BME280;6937;56.096;12.664;2022-09-20T17:01:15;102157.53;;;15.57;100.00
13732;BME280;6937;56.096;12.664;2022-09-20T17:03:42;102161.28;;;15.41;100.00
13732;BME280;6937;56.096;12.664;2022-09-20T17:06:09;102157.97;;;15.25;100.00
13732;BME280;6937;56.096;12.664;2022-09-20T17:08:36;102162.69;;;15.09;100.00
13732;BME280;6937;56.096;12.664;2022-09-20T17:11:15;102148.66;;;14.91;100.00
13732;BME280;6937;56.096;12.664;2022-09-20T17:13:42;102154.22;;;14.76;100.00
13732;BME280;6937;56.096;12.664;2022-09-20T17:16:11;102148.91;;;14.62;100.00
13732;BME280;6937;56.096;12.664;2022-09-20T17:18:37;102159.31;;;14.54;100.00